createdAt,value
2019-05-11T17:27:28.677Z,31.83
2019-05-11T17:29:59.289Z,32.83
2019-05-11T17:32:29.418Z,33.03
2019-05-11T17:34:58.370Z,33.22
2019-05-11T17:37:28.592Z,33.49
2019-05-11T17:39:58.661Z,32.97
2019-05-11T17:42:27.501Z,33.20
2019-05-11T17:44:58.775Z,33.19
2019-05-11T17:47:28.205Z,33.48
2019-05-11T17:50:03.250Z,33.88
2019-05-11T17:52:28.238Z,33.20
2019-05-11T17:54:57.108Z,33.21
2019-05-11T17:57:27.777Z,33.52
2019-05-11T17:59:57.910Z,33.68
2019-05-11T18:02:28.817Z,33.54
2019-05-11T18:04:58.412Z,33.79
2019-05-11T18:07:30.656Z,34.68
2019-05-11T18:09:58.608Z,35.08
2019-05-11T18:12:28.608Z,35.02
2019-05-11T18:14:58.560Z,34.83
2019-05-11T18:17:29.006Z,35.27
2019-05-11T18:20:06.613Z,35.54
2019-05-11T18:22:28.559Z,36.00
2019-05-11T18:24:58.099Z,36.55
2019-05-11T18:27:27.842Z,36.71
2019-05-11T18:29:58.055Z,36.50
2019-05-11T18:32:28.450Z,37.21
2019-05-11T18:34:58.966Z,37.59
2019-05-11T18:37:28.151Z,37.73
2019-05-11T18:39:58.493Z,37.80
2019-05-11T18:42:27.462Z,37.97
2019-05-11T18:44:58.104Z,38.25
2019-05-11T18:47:26.614Z,38.47
2019-05-11T18:49:55.368Z,38.76
2019-05-11T18:52:24.031Z,38.65
2019-05-11T18:54:52.753Z,40.01
2019-05-11T18:57:21.420Z,40.50
2019-05-11T18:59:50.172Z,41.00
2019-05-11T19:02:18.857Z,41.79
2019-05-11T19:04:48.746Z,42.03
2019-05-11T19:07:20.167Z,42.44
2019-05-11T19:09:48.493Z,42.97
2019-05-11T19:12:18.762Z,43.71
2019-05-11T19:14:48.119Z,44.39
2019-05-11T19:17:18.167Z,44.33
2019-05-11T19:19:48.599Z,45.01
2019-05-11T19:22:18.359Z,44.85
2019-05-11T19:24:47.587Z,45.58
2019-05-11T19:27:18.631Z,45.91
2019-05-11T19:29:48.409Z,46.90
2019-05-11T19:32:19.199Z,47.26
2019-05-11T19:34:47.902Z,48.30
2019-05-11T19:37:18.666Z,48.96
2019-05-11T19:39:48.531Z,49.49
2019-05-11T19:42:17.859Z,48.73
2019-05-11T19:44:47.947Z,48.74
2019-05-11T19:47:18.150Z,48.64
2019-05-11T19:49:47.826Z,48.65
2019-05-11T19:52:17.793Z,49.14
2019-05-11T19:54:48.731Z,50.35
2019-05-11T19:57:17.874Z,50.61
2019-05-11T19:59:48.075Z,50.68
2019-05-11T20:02:17.849Z,50.65
2019-05-11T20:04:48.073Z,50.98
2019-05-11T20:07:18.321Z,51.45
2019-05-11T20:09:49.926Z,51.77
2019-05-11T20:12:18.702Z,52.23
2019-05-11T20:14:50.523Z,52.96
2019-05-11T20:17:19.258Z,53.30
2019-05-11T20:19:49.045Z,53.15
2019-05-11T20:22:17.921Z,54.05
2019-05-11T20:24:47.641Z,53.90
2019-05-11T20:27:18.483Z,53.97
2019-05-11T20:29:47.792Z,53.92
2019-05-11T20:32:18.622Z,53.70
2019-05-11T20:34:48.283Z,54.07
2019-05-11T20:37:18.152Z,54.00
2019-05-11T20:39:48.121Z,53.92
2019-05-11T20:42:18.176Z,54.04
2019-05-11T20:44:47.030Z,54.49
2019-05-11T20:47:17.433Z,54.47
2019-05-11T20:49:48.218Z,54.62
2019-05-11T20:52:17.831Z,54.40
2019-05-11T20:54:47.724Z,54.22
2019-05-11T20:57:17.978Z,54.41
2019-05-11T20:59:46.791Z,55.00
2019-05-11T21:02:18.010Z,55.16
2019-05-11T21:04:46.048Z,55.04
2019-05-11T21:07:14.741Z,55.26
2019-05-11T21:09:48.247Z,55.15
2019-05-11T21:12:18.493Z,55.56
2019-05-11T21:14:48.529Z,55.27
2019-05-11T21:17:18.150Z,55.50
2019-05-11T21:19:47.872Z,55.32
2019-05-11T21:22:16.681Z,55.54
2019-05-11T21:24:49.359Z,55.51
2019-05-11T21:27:20.017Z,55.91
2019-05-11T21:29:49.098Z,56.42
2019-05-11T21:32:18.084Z,55.64
2019-05-11T21:34:48.911Z,56.11
2019-05-11T21:37:18.269Z,56.00
2019-05-11T21:39:48.210Z,55.88
2019-05-11T21:42:18.141Z,56.45
2019-05-11T21:44:46.984Z,56.21
2019-05-11T21:47:15.678Z,56.66
2019-05-11T21:49:44.353Z,56.70
2019-05-11T21:52:13.127Z,56.38
2019-05-11T21:54:41.781Z,57.05
2019-05-11T21:57:10.465Z,56.84
2019-05-11T21:59:39.146Z,56.83
2019-05-11T22:02:10.928Z,57.27
2019-05-11T22:04:39.938Z,57.23
2019-05-11T22:07:09.010Z,57.22
2019-05-11T22:09:38.397Z,57.23
2019-05-11T22:12:07.860Z,57.83
2019-05-11T22:14:38.450Z,57.82
2019-05-11T22:17:07.809Z,58.17
2019-05-11T22:19:40.238Z,57.63
2019-05-11T22:22:20.745Z,57.74
2019-05-11T22:24:37.484Z,57.54
2019-05-11T22:27:08.105Z,57.92
2019-05-11T22:29:37.873Z,58.01
2019-05-11T22:32:06.763Z,58.08
2019-05-11T22:34:37.947Z,58.50
2019-05-11T22:37:08.663Z,58.30
2019-05-11T22:39:37.797Z,58.15
2019-05-11T22:42:07.921Z,58.05
2019-05-11T22:44:38.658Z,58.41
2019-05-11T22:47:08.965Z,58.49
2019-05-11T22:49:37.787Z,58.44
2019-05-11T22:52:08.594Z,58.31
2019-05-11T22:54:38.335Z,58.29
2019-05-11T22:57:08.118Z,59.04
2019-05-11T22:59:38.490Z,59.02
2019-05-11T23:02:07.707Z,58.81
2019-05-11T23:04:38.159Z,58.94
2019-05-11T23:07:07.961Z,58.98
2019-05-11T23:09:38.160Z,59.06
2019-05-11T23:12:09.018Z,59.19
2019-05-11T23:14:37.806Z,59.56
2019-05-11T23:17:08.102Z,59.84
2019-05-11T23:19:38.129Z,59.70
2019-05-11T23:22:08.245Z,60.00
2019-05-11T23:24:37.157Z,59.88
2019-05-11T23:27:07.845Z,59.82
2019-05-11T23:29:38.249Z,60.09
2019-05-11T23:32:08.657Z,60.54
2019-05-11T23:34:38.802Z,60.16
2019-05-11T23:37:08.040Z,60.68
2019-05-11T23:39:38.691Z,60.50
2019-05-11T23:42:08.057Z,60.47
2019-05-11T23:44:36.941Z,60.82
2019-05-11T23:47:05.612Z,60.54
2019-05-11T23:49:34.352Z,60.56
2019-05-11T23:52:03.109Z,60.95
2019-05-11T23:54:31.942Z,60.75
2019-05-11T23:57:00.594Z,60.81
2019-05-11T23:59:29.281Z,61.02
